Time;durP1;ratioP1;P1;durP2;ratioP2;P2;SDS_P1;SDS_P2;PMS_P1;PMS_P2;Temp;Humidity;BMP_temperature;BMP_pressure;BME280_temperature;BME280_humidity;BME280_pressure;Samples;Min_cycle;Max_cycle;Signal;HPM_P1;HPM_P2
2021/05/07 10:50:23;;;;;;;;;;;;;;;;;;5078593;27;19927;-67
2021/05/07 10:52:49;;;;;;;;;;;;;;;;;;5078138;27;20390;-67
2021/05/07 10:55:14;;;;;;;;;;;;;;;;;;5081297;28;20008;-58
2021/05/07 10:57:40;;;;;;;;;;;;;;;;;;5073355;28;20028;-67
2021/05/07 11:00:06;;;;;;;;;;;;;;;;;;5074751;28;19936;-62
2021/05/07 11:02:32;;;;;;;;;;;;;;;;;;5077883;28;19917;-68
2021/05/07 11:04:58;;;;;;;;;;;;;;;;;;5079383;28;19921;-69
2021/05/07 11:07:24;;;;;;;;;;;;;;;;;;5070549;28;19920;-61
2021/05/07 11:20:58;;;;;;;;;;;;;;;;;;5088681;27;19926;-42
2021/05/07 11:23:24;;;;;;;;;;;;;;;;;;5099163;28;20570;-44
2021/05/07 11:25:50;;;;;;;;;;;;;;;;;;5097141;28;19936;-42
2021/05/07 11:28:17;;;;;;;;;;;;;;;;;;5091921;28;20777;-43
2021/05/07 11:30:43;;;;;;;;;;;;;;;;;;5093821;28;20299;-44
2021/05/07 11:33:09;;;;;;;;;;;;;;;;;;5097677;28;19916;-42
2021/05/07 11:35:35;;;;;;;;;;;;;;;;;;5089670;28;19920;-43
2021/05/07 11:38:01;;;;;;;;;;;;;;;;;;5092566;28;19921;-42
2021/05/07 11:40:26;;;;;;;;;;;;;;;;;;5095702;28;19993;-43
2021/05/07 11:42:55;;;;;;;;;;;;;;;;;;5098056;28;19951;-43
2021/05/07 11:45:27;;;;;;;;;;;;;;;;;;5092062;28;19920;-42
2021/05/07 11:47:53;;;;;;;;;;;;;;;;;;4950918;28;19956;-43
2021/05/07 11:50:19;;;;;;;;;;;;;;;;;;5047733;28;19967;-43
2021/05/07 11:52:45;;;;;;;;;;;;;;;;;;5033124;28;20015;-42
2021/05/07 11:55:11;;;;;;;;;;;;;;;;;;5052536;28;19924;-44
2021/05/07 11:57:37;;;;;;;;;;;;;;;;;;5050500;28;19921;-42
2021/05/07 12:00:03;;;;;;;;;;;;;;;;;;5051446;28;19920;-42
2021/05/07 12:02:28;;;;;;;;;;;;;;;;;;5047870;28;19956;-43
2021/05/07 12:04:55;;;;;;;;;;;;;;;;;;5049747;28;19915;-43
2021/05/07 12:07:21;;;;;;;;;;;;;;;;;;5053605;28;19926;-42
2021/05/07 12:09:47;;;;;;;;;;;;;;;;;;5045071;28;19921;-43
2021/05/07 12:12:13;;;;;;;;;;;;;;;;;;5047634;28;19920;-43
2021/05/07 12:14:45;;;;;;;;;;;;;;;;;;5050259;28;19923;-42
2021/05/07 12:17:11;;;;;;;;;;;;;;;;;;5049210;28;19917;-44
2021/05/07 12:19:37;;;;;;;;;;;;;;;;;;5052940;28;19917;-43
2021/05/07 12:22:03;;;;;;;;;;;;;;;;;;5045267;28;20020;-43
2021/05/07 12:24:29;;;;;;;;;;;;;;;;;;5057450;28;19912;-46
2021/05/07 12:26:55;;;;;;;;;;;;;;;;;;5055854;28;19986;-44
2021/05/07 12:29:21;;;;;;;;;;;;;;;;;;5056483;28;19917;-42
2021/05/07 12:31:47;;;;;;;;;;;;;;;;;;5044310;28;20276;-45
2021/05/07 12:34:13;;;;;;;;;;;;;;;;;;5039615;28;19913;-42
2021/05/07 12:36:39;;;;;;;;;;;;;;;;;;5043126;28;19913;-42
2021/05/07 12:39:05;;;;;;;;;;;;;;;;;;5035616;28;19921;-45
2021/05/07 12:41:31;;;;;;;;;;;;;;;;;;5036669;28;20726;-44
2021/05/07 12:43:57;;;;;;;;;;;;;;;;;;5036708;28;19913;-43
2021/05/07 12:46:23;;;;;;;;;;;;;;;;;;5036995;28;19951;-44
2021/05/07 12:48:48;;;;;;;;;;;;;;;;;;5036629;28;19960;-44
2021/05/07 12:51:14;;;;;;;;;;;;;;;;;;5041922;28;19913;-44
2021/05/07 12:53:42;;;;;;;;;;;;;;;;;;5037976;28;20298;-42
2021/05/07 12:56:08;;;;;;;;;;;;;;;;;;5043790;28;20020;-42
2021/05/07 12:58:34;;;;;;;;;;;;;;;;;;5039957;28;19996;-42
2021/05/07 13:01:00;;;;;;;;;;;;;;;;;;5039706;28;19921;-44
2021/05/07 13:03:26;;;;;;;;;;;;;;;;;;5038796;28;19916;-44
2021/05/07 13:05:51;;;;;;;;;;;;;;;;;;5035213;28;19913;-43
2021/05/07 13:08:17;;;;;;;;;;;;;;;;;;5043721;28;20379;-42
2021/05/07 13:10:43;;;;;;;;;;;;;;;;;;5038200;28;19917;-43
2021/05/07 13:13:09;;;;;;;;;;;;;;;;;;5038017;28;20003;-42
2021/05/07 13:15:35;;;;;;;;;;;;;;;;;;5040317;28;19913;-43
2021/05/07 13:18:01;;;;;;;;;;;;;;;;;;5044203;28;20719;-43
2021/05/07 13:20:27;;;;;;;;;;;;;;;;;;5039860;28;19921;-43
2021/05/07 13:22:53;;;;;;;;;;;;;;;;;;5047957;28;19967;-44
2021/05/07 13:25:19;;;;;;;;;;;;;;;;;;5035816;28;20383;-46
2021/05/07 13:27:45;;;;;;;;;;;;;;;;;;5036672;28;20004;-46
2021/05/07 13:30:11;;;;;;;;;;;;;;;;;;5034130;28;19921;-43
2021/05/07 13:32:37;;;;;;;;;;;;;;;;;;5037035;28;19914;-44
2021/05/07 13:35:03;;;;;;;;;;;;;;;;;;5032548;28;19975;-43
2021/05/07 13:37:28;;;;;;;;;;;;;;;;;;5037180;28;20035;-43
2021/05/07 13:39:54;;;;;;;;;;;;;;;;;;5034676;28;19921;-44
2021/05/07 13:42:20;;;;;;;;;;;;;;;;;;5037774;28;19916;-44
2021/05/07 13:44:46;;;;;;;;;;;;;;;;;;5043414;28;19920;-44
2021/05/07 13:47:12;;;;;;;;;;;;;;;;;;5040381;28;19975;-44
2021/05/07 13:49:38;;;;;;;;;;;;;;;;;;5040102;28;19916;-43
2021/05/07 13:52:04;;;;;;;;;;;;;;;;;;5040629;28;19916;-44
2021/05/07 13:54:30;;;;;;;;;;;;;;;;;;5038838;28;19916;-45
2021/05/07 13:56:56;;;;;;;;;;;;;;;;;;5042948;28;19928;-44
2021/05/07 13:59:22;;;;;;;;;;;;;;;;;;5034569;28;19917;-43
2021/05/07 14:01:48;;;;;;;;;;;;;;;;;;5039194;28;19921;-44
2021/05/07 14:04:14;;;;;;;;;;;;;;;;;;5036700;28;19913;-45
2021/05/07 14:06:39;;;;;;;;;;;;;;;;;;5040470;28;19917;-43
2021/05/07 14:09:05;;;;;;;;;;;;;;;;;;5037896;28;20779;-45
2021/05/07 14:11:31;;;;;;;;;;;;;;;;;;5040195;28;20277;-44
2021/05/07 14:13:57;;;;;;;;;;;;;;;;;;5040335;28;19913;-44
2021/05/07 14:16:23;;;;;;;;;;;;;;;;;;5035023;28;19913;-44
2021/05/07 14:18:49;;;;;;;;;;;;;;;;;;5041293;28;19963;-45
2021/05/07 14:21:15;;;;;;;;;;;;;;;;;;5035315;28;20016;-44
2021/05/07 14:23:41;;;;;;;;;;;;;;;;;;5036140;28;20475;-44
2021/05/07 14:26:07;;;;;;;;;;;;;;;;;;5037612;28;19913;-44
2021/05/07 14:28:33;;;;;;;;;;;;;;;;;;5037825;28;19996;-44
2021/05/07 14:30:59;;;;;;;;;;;;;;;;;;5042143;28;20015;-44
2021/05/07 14:33:25;;;;;;;;;;;;;;;;;;5035621;28;19959;-45
2021/05/07 14:35:53;;;;;;;;;;;;;;;;;;5037663;28;19917;-44
2021/05/07 14:38:19;;;;;;;;;;;;;;;;;;5040557;28;19919;-43
2021/05/07 14:40:45;;;;;;;;;;;;;;;;;;5039937;28;20008;-43
2021/05/07 14:43:10;;;;;;;;;;;;;;;;;;5035629;28;20007;-43
2021/05/07 14:45:36;;;;;;;;;;;;;;;;;;5036001;28;19913;-44
2021/05/07 14:48:02;;;;;;;;;;;;;;;;;;5038801;28;19921;-44
2021/05/07 14:50:28;;;;;;;;;;;;;;;;;;5036915;28;19971;-43
2021/05/07 14:52:54;;;;;;;;;;;;;;;;;;5038949;28;20019;-43
2021/05/07 14:55:20;;;;;;;;;;;;;;;;;;5034561;28;19951;-43
2021/05/07 14:57:46;;;;;;;;;;;;;;;;;;5035788;28;19948;-43
2021/05/07 15:00:12;;;;;;;;;;;;;;;;;;5032077;28;19913;-43
2021/05/07 15:02:38;;;;;;;;;;;;;;;;;;5039098;28;19909;-43
2021/05/07 15:05:04;;;;;;;;;;;;;;;;;;5039226;28;19913;-44
2021/05/07 15:07:35;;;;;;;;;;;;;;;;;;5040892;28;19935;-43
2021/05/07 15:10:01;;;;;;;;;;;;;;;;;;5039396;28;19951;-44
2021/05/07 15:12:27;;;;;;;;;;;;;;;;;;5035331;28;20460;-44
2021/05/07 15:14:53;;;;;;;;;;;;;;;;;;5037178;28;19913;-43
2021/05/07 15:17:19;;;;;;;;;;;;;;;;;;5042160;28;19909;-42
2021/05/07 15:19:49;;;;;;;;;;;;;;;;;;5036597;28;20003;-42
2021/05/07 15:22:15;;;;;;;;;;;;;;;;;;5036497;28;19913;-44
2021/05/07 15:24:41;;;;;;;;;;;;;;;;;;5040844;28;19913;-44
2021/05/07 15:27:07;;;;;;;;;;;;;;;;;;5037556;28;20054;-44
2021/05/07 15:29:33;;;;;;;;;;;;;;;;;;5042235;28;19931;-43
2021/05/07 15:31:59;;;;;;;;;;;;;;;;;;5040182;28;19982;-43
2021/05/07 15:34:25;;;;;;;;;;;;;;;;;;5034206;28;20391;-44
2021/05/07 15:36:51;;;;;;;;;;;;;;;;;;5037320;28;20383;-44
2021/05/07 15:39:17;;;;;;;;;;;;;;;;;;5041020;28;19913;-42
2021/05/07 15:41:43;;;;;;;;;;;;;;;;;;5035718;28;20384;-44
2021/05/07 15:44:08;;;;;;;;;;;;;;;;;;5045109;28;20647;-43
2021/05/07 15:46:34;;;;;;;;;;;;;;;;;;5039230;28;20421;-43
2021/05/07 15:49:00;;;;;;;;;;;;;;;;;;5030582;28;19921;-45
2021/05/07 15:51:26;;;;;;;;;;;;;;;;;;5038122;28;19913;-44
2021/05/07 15:53:52;;;;;;;;;;;;;;;;;;5032829;28;19917;-43
2021/05/07 15:56:18;;;;;;;;;;;;;;;;;;5038969;28;19958;-43
2021/05/07 15:58:44;;;;;;;;;;;;;;;;;;5032254;28;19917;-43
2021/05/07 16:01:10;;;;;;;;;;;;;;;;;;5040969;28;19924;-44
2021/05/07 16:03:36;;;;;;;;;;;;;;;;;;5039448;28;19917;-44
2021/05/07 16:06:02;;;;;;;;;;;;;;;;;;5036142;28;19921;-44
2021/05/07 16:08:28;;;;;;;;;;;;;;;;;;5037889;28;20275;-44
2021/05/07 16:10:54;;;;;;;;;;;;;;;;;;5038746;28;19920;-44
2021/05/07 16:13:20;;;;;;;;;;;;;;;;;;5039403;28;19939;-44
2021/05/07 16:15:46;;;;;;;;;;;;;;;;;;5042523;28;20364;-44
2021/05/07 16:18:12;;;;;;;;;;;;;;;;;;5036913;28;19928;-45
2021/05/07 16:20:38;;;;;;;;;;;;;;;;;;5040153;28;19924;-45
2021/05/07 16:23:05;;;;;;;;;;;;;;;;;;5039983;28;19967;-44
2021/05/07 16:25:31;;;;;;;;;;;;;;;;;;5037199;28;19924;-44
2021/05/07 16:27:57;;;;;;;;;;;;;;;;;;5041579;28;19913;-45
2021/05/07 16:30:23;;;;;;;;;;;;;;;;;;5042540;28;19923;-44
2021/05/07 16:32:49;;;;;;;;;;;;;;;;;;5038582;28;20012;-43
2021/05/07 16:35:15;;;;;;;;;;;;;;;;;;5040297;28;20023;-44
2021/05/07 16:37:42;;;;;;;;;;;;;;;;;;5044874;28;19960;-45
2021/05/07 16:40:08;;;;;;;;;;;;;;;;;;5045234;28;20000;-43
2021/05/07 16:42:34;;;;;;;;;;;;;;;;;;5038769;28;20003;-43
2021/05/07 16:45:00;;;;;;;;;;;;;;;;;;5035964;28;19913;-43
2021/05/07 16:47:26;;;;;;;;;;;;;;;;;;5039957;28;19920;-43
2021/05/07 16:49:52;;;;;;;;;;;;;;;;;;5034179;28;19975;-45
2021/05/07 16:52:18;;;;;;;;;;;;;;;;;;5039385;28;19913;-43
2021/05/07 16:54:43;;;;;;;;;;;;;;;;;;5039668;28;19914;-45
2021/05/07 16:57:09;;;;;;;;;;;;;;;;;;5035360;28;19975;-45
2021/05/07 16:59:35;;;;;;;;;;;;;;;;;;5036687;28;20015;-44
2021/05/07 17:02:01;;;;;;;;;;;;;;;;;;5035361;28;20368;-44
2021/05/07 17:04:27;;;;;;;;;;;;;;;;;;5038239;28;20043;-44
2021/05/07 17:06:54;;;;;;;;;;;;;;;;;;5032954;28;19931;-45
2021/05/07 17:09:20;;;;;;;;;;;;;;;;;;5036917;28;19936;-45
2021/05/07 17:11:46;;;;;;;;;;;;;;;;;;5039352;28;20299;-43
2021/05/07 17:14:12;;;;;;;;;;;;;;;;;;5037810;28;19936;-44
2021/05/07 17:16:38;;;;;;;;;;;;;;;;;;5037432;28;19917;-43
2021/05/07 17:19:04;;;;;;;;;;;;;;;;;;5029970;28;19916;-44
2021/05/07 17:21:30;;;;;;;;;;;;;;;;;;5040401;28;19982;-44
2021/05/07 17:23:56;;;;;;;;;;;;;;;;;;5039252;28;20394;-44
2021/05/07 17:26:25;;;;;;;;;;;;;;;;;;5035886;28;20317;-44
2021/05/07 17:28:51;;;;;;;;;;;;;;;;;;5034289;28;19966;-44
2021/05/07 17:31:17;;;;;;;;;;;;;;;;;;5040629;28;19913;-45
2021/05/07 17:33:43;;;;;;;;;;;;;;;;;;5038729;28;19924;-44
2021/05/07 17:36:08;;;;;;;;;;;;;;;;;;5038808;28;19917;-46
2021/05/07 17:38:34;;;;;;;;;;;;;;;;;;5040186;28;19909;-45
2021/05/07 17:41:00;;;;;;;;;;;;;;;;;;5030203;28;19952;-44
2021/05/07 17:43:26;;;;;;;;;;;;;;;;;;5039164;28;19968;-44
2021/05/07 17:45:54;;;;;;;;;;;;;;;;;;5029919;28;20311;-44
2021/05/07 17:48:19;;;;;;;;;;;;;;;;;;5043749;28;20319;-45
2021/05/07 17:50:45;;;;;;;;;;;;;;;;;;5036358;28;19960;-44
2021/05/07 17:53:11;;;;;;;;;;;;;;;;;;5040574;28;19913;-44
2021/05/07 17:55:37;;;;;;;;;;;;;;;;;;5041442;28;19915;-44
2021/05/07 17:58:03;;;;;;;;;;;;;;;;;;5038124;28;20390;-43
2021/05/07 18:00:29;;;;;;;;;;;;;;;;;;5033822;28;19924;-44
2021/05/07 18:02:55;;;;;;;;;;;;;;;;;;5036120;28;19916;-44
2021/05/07 18:05:21;;;;;;;;;;;;;;;;;;4829225;28;19926;-43
2021/05/07 18:07:47;;;;;;;;;;;;;;;;;;5018972;28;20430;-45
2021/05/07 18:10:13;;;;;;;;;;;;;;;;;;5030135;28;19921;-44
2021/05/07 18:12:40;;;;;;;;;;;;;;;;;;5029494;28;19943;-43
2021/05/07 18:15:06;;;;;;;;;;;;;;;;;;5032372;28;19913;-45
2021/05/07 18:17:33;;;;;;;;;;;;;;;;;;5032789;28;20016;-43
2021/05/07 18:19:59;;;;;;;;;;;;;;;;;;5029012;28;19925;-44
2021/05/07 18:22:25;;;;;;;;;;;;;;;;;;5037666;28;19968;-44
2021/05/07 18:24:51;;;;;;;;;;;;;;;;;;5036928;28;19932;-44
2021/05/07 18:27:17;;;;;;;;;;;;;;;;;;5039219;28;19913;-44
2021/05/07 18:29:43;;;;;;;;;;;;;;;;;;5036525;28;20381;-45
2021/05/07 18:32:09;;;;;;;;;;;;;;;;;;5032458;28;19948;-45
2021/05/07 18:34:35;;;;;;;;;;;;;;;;;;5030942;28;19926;-44
2021/05/07 18:37:01;;;;;;;;;;;;;;;;;;5034229;28;19971;-44
2021/05/07 18:39:26;;;;;;;;;;;;;;;;;;5040485;28;19913;-45
2021/05/07 18:41:52;;;;;;;;;;;;;;;;;;5034735;28;19917;-44
2021/05/07 18:44:18;;;;;;;;;;;;;;;;;;5031678;28;19924;-44
2021/05/07 18:46:45;;;;;;;;;;;;;;;;;;5027757;28;19940;-44
2021/05/07 18:49:11;;;;;;;;;;;;;;;;;;5037629;28;20311;-45
2021/05/07 18:51:36;;;;;;;;;;;;;;;;;;5034650;28;20392;-45
2021/05/07 18:54:06;;;;;;;;;;;;;;;;;;5032976;28;20747;-44
2021/05/07 18:56:31;;;;;;;;;;;;;;;;;;5037195;28;19948;-44
2021/05/07 18:58:57;;;;;;;;;;;;;;;;;;5030317;28;19917;-44
2021/05/07 19:01:23;;;;;;;;;;;;;;;;;;5033282;28;19913;-44
2021/05/07 19:03:49;;;;;;;;;;;;;;;;;;5033485;28;19924;-43
2021/05/07 19:06:15;;;;;;;;;;;;;;;;;;5029650;28;20402;-43
2021/05/07 19:08:41;;;;;;;;;;;;;;;;;;5034295;28;19920;-45
2021/05/07 19:11:07;;;;;;;;;;;;;;;;;;5038016;28;20379;-44
2021/05/07 19:13:33;;;;;;;;;;;;;;;;;;5029249;28;19917;-43
2021/05/07 19:16:00;;;;;;;;;;;;;;;;;;5029156;28;19921;-43
2021/05/07 19:18:26;;;;;;;;;;;;;;;;;;5034022;28;19921;-43
2021/05/07 19:20:52;;;;;;;;;;;;;;;;;;5032287;28;19917;-43
2021/05/07 19:23:17;;;;;;;;;;;;;;;;;;5035995;28;20015;-43
2021/05/07 19:25:46;;;;;;;;;;;;;;;;;;5037804;28;19916;-43
2021/05/07 19:28:12;;;;;;;;;;;;;;;;;;5036316;28;19928;-45
2021/05/07 19:30:38;;;;;;;;;;;;;;;;;;5037603;28;19921;-43
2021/05/07 19:33:04;;;;;;;;;;;;;;;;;;5026559;28;19948;-43
2021/05/07 19:35:30;;;;;;;;;;;;;;;;;;5041348;28;20316;-43
2021/05/07 19:37:56;;;;;;;;;;;;;;;;;;5029985;28;19924;-44
2021/05/07 19:40:22;;;;;;;;;;;;;;;;;;5036712;28;19978;-43
2021/05/07 19:42:48;;;;;;;;;;;;;;;;;;5035562;28;20391;-42
2021/05/07 19:45:14;;;;;;;;;;;;;;;;;;5037626;28;19924;-43
2021/05/07 19:47:40;;;;;;;;;;;;;;;;;;5030979;28;19928;-42
2021/05/07 19:50:06;;;;;;;;;;;;;;;;;;5030286;28;19932;-43
2021/05/07 19:52:32;;;;;;;;;;;;;;;;;;5033477;28;19924;-43
2021/05/07 19:54:58;;;;;;;;;;;;;;;;;;5036909;28;20733;-44
2021/05/07 19:57:24;;;;;;;;;;;;;;;;;;5042184;28;20011;-44
2021/05/07 19:59:49;;;;;;;;;;;;;;;;;;5033204;28;19963;-43
2021/05/07 20:02:15;;;;;;;;;;;;;;;;;;5038445;28;19963;-43
2021/05/07 20:04:42;;;;;;;;;;;;;;;;;;5036321;28;19929;-43
2021/05/07 20:07:08;;;;;;;;;;;;;;;;;;5029641;28;19921;-43
2021/05/07 20:09:34;;;;;;;;;;;;;;;;;;5036345;28;19920;-42
2021/05/07 20:12:02;;;;;;;;;;;;;;;;;;5034821;28;20394;-42
2021/05/07 20:14:28;;;;;;;;;;;;;;;;;;5036441;28;19921;-43
2021/05/07 20:16:54;;;;;;;;;;;;;;;;;;5040607;28;19939;-43
2021/05/07 20:19:21;;;;;;;;;;;;;;;;;;5029912;28;19921;-43
2021/05/07 20:21:47;;;;;;;;;;;;;;;;;;5037668;28;19924;-43
2021/05/07 20:24:13;;;;;;;;;;;;;;;;;;5037022;28;19917;-43
2021/05/07 20:26:39;;;;;;;;;;;;;;;;;;5035150;28;19913;-43
2021/05/07 20:29:05;;;;;;;;;;;;;;;;;;5030273;28;19919;-42
2021/05/07 20:31:31;;;;;;;;;;;;;;;;;;5042007;28;19962;-42
2021/05/07 20:33:57;;;;;;;;;;;;;;;;;;5041746;28;19921;-42
2021/05/07 20:36:23;;;;;;;;;;;;;;;;;;5038525;28;19965;-43
2021/05/07 20:38:49;;;;;;;;;;;;;;;;;;5037980;28;19956;-43
2021/05/07 20:41:15;;;;;;;;;;;;;;;;;;5030358;28;20370;-42
2021/05/07 20:43:40;;;;;;;;;;;;;;;;;;5037169;28;19913;-44
2021/05/07 20:46:07;;;;;;;;;;;;;;;;;;5027420;28;20015;-43
2021/05/07 20:48:32;;;;;;;;;;;;;;;;;;5027785;28;19982;-43
2021/05/07 20:50:58;;;;;;;;;;;;;;;;;;5036116;28;20743;-45
2021/05/07 20:53:24;;;;;;;;;;;;;;;;;;5033597;28;19913;-42
2021/05/07 20:55:50;;;;;;;;;;;;;;;;;;5032442;28;19924;-44
2021/05/07 20:58:16;;;;;;;;;;;;;;;;;;5032427;28;19955;-43
2021/05/07 21:00:42;;;;;;;;;;;;;;;;;;5026258;28;20467;-43
2021/05/07 21:03:08;;;;;;;;;;;;;;;;;;5027374;28;19917;-43
2021/05/07 21:05:35;;;;;;;;;;;;;;;;;;5027587;28;19913;-44
2021/05/07 21:08:01;;;;;;;;;;;;;;;;;;5026922;28;19964;-44
2021/05/07 21:10:27;;;;;;;;;;;;;;;;;;5033581;28;19959;-45
2021/05/07 21:12:53;;;;;;;;;;;;;;;;;;5040206;28;19921;-44
2021/05/07 21:15:19;;;;;;;;;;;;;;;;;;5036973;28;19924;-43
2021/05/07 21:17:45;;;;;;;;;;;;;;;;;;5030260;28;19938;-44
2021/05/07 21:20:11;;;;;;;;;;;;;;;;;;5030630;28;20364;-44
2021/05/07 21:22:37;;;;;;;;;;;;;;;;;;5033014;28;19922;-44
2021/05/07 21:25:03;;;;;;;;;;;;;;;;;;5034832;28;19932;-44
2021/05/07 21:27:29;;;;;;;;;;;;;;;;;;5038756;28;20492;-43
2021/05/07 21:29:55;;;;;;;;;;;;;;;;;;5038298;28;19917;-43
2021/05/07 21:32:20;;;;;;;;;;;;;;;;;;5040047;28;19932;-43
2021/05/07 21:34:47;;;;;;;;;;;;;;;;;;5032217;28;19932;-42
2021/05/07 21:37:13;;;;;;;;;;;;;;;;;;5031802;28;19939;-44
2021/05/07 21:39:40;;;;;;;;;;;;;;;;;;5035271;28;20475;-43
2021/05/07 21:42:06;;;;;;;;;;;;;;;;;;5035500;28;19923;-43
2021/05/07 21:44:32;;;;;;;;;;;;;;;;;;5039233;28;19916;-44
2021/05/07 21:46:58;;;;;;;;;;;;;;;;;;5034072;28;19924;-43
2021/05/07 21:49:24;;;;;;;;;;;;;;;;;;5028307;28;19924;-44
2021/05/07 21:51:50;;;;;;;;;;;;;;;;;;5036807;28;19916;-48
2021/05/07 21:54:16;;;;;;;;;;;;;;;;;;5040138;28;19913;-44
2021/05/07 21:56:42;;;;;;;;;;;;;;;;;;5035863;28;19917;-44
2021/05/07 21:59:08;;;;;;;;;;;;;;;;;;5038274;28;19945;-44
2021/05/07 22:01:34;;;;;;;;;;;;;;;;;;5035004;28;19952;-44
2021/05/07 22:04:00;;;;;;;;;;;;;;;;;;5038910;28;20027;-45
2021/05/07 22:06:26;;;;;;;;;;;;;;;;;;5038249;28;19919;-44
2021/05/07 22:08:52;;;;;;;;;;;;;;;;;;5034496;28;19913;-44
2021/05/07 22:11:18;;;;;;;;;;;;;;;;;;5032343;28;19921;-44
2021/05/07 22:13:44;;;;;;;;;;;;;;;;;;5038191;28;20561;-43
2021/05/07 22:16:10;;;;;;;;;;;;;;;;;;5036856;28;19913;-44
2021/05/07 22:18:36;;;;;;;;;;;;;;;;;;5033011;28;19975;-46
2021/05/07 22:21:02;;;;;;;;;;;;;;;;;;5031483;28;20004;-44
2021/05/07 22:23:28;;;;;;;;;;;;;;;;;;5041692;28;19925;-44
2021/05/07 22:25:54;;;;;;;;;;;;;;;;;;5048368;28;19920;-44
2021/05/07 22:28:20;;;;;;;;;;;;;;;;;;5032670;28;20012;-44
2021/05/07 22:30:46;;;;;;;;;;;;;;;;;;5036429;28;19978;-42
2021/05/07 22:33:11;;;;;;;;;;;;;;;;;;5038071;28;19920;-46
2021/05/07 22:35:37;;;;;;;;;;;;;;;;;;5037459;28;19952;-42
2021/05/07 22:38:03;;;;;;;;;;;;;;;;;;5044701;28;19952;-43
2021/05/07 22:40:29;;;;;;;;;;;;;;;;;;5044085;28;20364;-44
2021/05/07 22:42:56;;;;;;;;;;;;;;;;;;5031537;28;19917;-44
2021/05/07 22:45:22;;;;;;;;;;;;;;;;;;5037286;28;19917;-44
2021/05/07 22:47:48;;;;;;;;;;;;;;;;;;5036655;28;19928;-44
2021/05/07 22:50:14;;;;;;;;;;;;;;;;;;5029459;28;19921;-44
2021/05/07 22:52:40;;;;;;;;;;;;;;;;;;5032344;28;19928;-44
2021/05/07 22:55:06;;;;;;;;;;;;;;;;;;5035089;28;19917;-44
2021/05/07 22:57:33;;;;;;;;;;;;;;;;;;5034823;28;19991;-43
2021/05/07 22:59:59;;;;;;;;;;;;;;;;;;5037067;28;19985;-44
2021/05/07 23:02:24;;;;;;;;;;;;;;;;;;5031103;28;20031;-44
2021/05/07 23:04:50;;;;;;;;;;;;;;;;;;5035218;28;19927;-44
2021/05/07 23:07:16;;;;;;;;;;;;;;;;;;5034844;28;19917;-44
2021/05/07 23:09:42;;;;;;;;;;;;;;;;;;5034666;28;20041;-44
2021/05/07 23:12:08;;;;;;;;;;;;;;;;;;5035265;28;20819;-43
2021/05/07 23:14:34;;;;;;;;;;;;;;;;;;5034551;28;19924;-44
2021/05/07 23:17:00;;;;;;;;;;;;;;;;;;5029700;28;19944;-44
2021/05/07 23:19:26;;;;;;;;;;;;;;;;;;5034249;28;20461;-44
2021/05/07 23:21:52;;;;;;;;;;;;;;;;;;5032530;28;19924;-44
2021/05/07 23:24:18;;;;;;;;;;;;;;;;;;5041224;28;19969;-43
2021/05/07 23:26:44;;;;;;;;;;;;;;;;;;5044560;28;20316;-43
2021/05/07 23:29:10;;;;;;;;;;;;;;;;;;5037600;28;20003;-43
2021/05/07 23:31:36;;;;;;;;;;;;;;;;;;5031508;28;19915;-44
2021/05/07 23:34:01;;;;;;;;;;;;;;;;;;5033171;28;19920;-44
2021/05/07 23:36:27;;;;;;;;;;;;;;;;;;5034906;28;19921;-44
2021/05/07 23:38:53;;;;;;;;;;;;;;;;;;5034082;28;19920;-43
2021/05/07 23:41:19;;;;;;;;;;;;;;;;;;5033662;28;20299;-43
2021/05/07 23:43:45;;;;;;;;;;;;;;;;;;5039076;28;20471;-44
2021/05/07 23:46:11;;;;;;;;;;;;;;;;;;5036122;28;19917;-43
2021/05/07 23:48:37;;;;;;;;;;;;;;;;;;5029702;28;20406;-43
2021/05/07 23:51:03;;;;;;;;;;;;;;;;;;5034693;28;20468;-43
2021/05/07 23:53:29;;;;;;;;;;;;;;;;;;5033807;28;19917;-43
2021/05/07 23:55:55;;;;;;;;;;;;;;;;;;5041462;28;19971;-43
2021/05/07 23:58:23;;;;;;;;;;;;;;;;;;5034602;28;20007;-43
